Terminal Aerodrome Forecast
Issued by NWS

Home | Current Version | Previous Version | Text Only | Print | Product List | Glossary On
Versions: 1 2 3 4 5 6 7 8 9 10 11 12 13 14 15
000
FTUS46 KSEW 021720
TAFCLM
TAF
KCLM 021720Z 0218/0318 VRB04KT P6SM SKC
     FM022100 06004KT P6SM SKC
     FM030100 28008KT P6SM SKC
     FM031600 34006KT P6SM SKC=

USA.gov is the U.S. government's official web portal to all federal, state and local government web resources and services.